sensor_id;sensor_type;location;lat;lon;timestamp;temperature;humidity
1179;DHT22;578;48.408;10.004;2022-09-17T00:01:26;10.40;99.90
1179;DHT22;578;48.408;10.004;2022-09-17T00:03:54;10.30;99.90
1179;DHT22;578;48.408;10.004;2022-09-17T00:06:22;10.30;99.90
1179;DHT22;578;48.408;10.004;2022-09-17T00:08:50;10.30;99.90
1179;DHT22;578;48.408;10.004;2022-09-17T00:11:19;10.30;99.90
1179;DHT22;578;48.408;10.004;2022-09-17T00:13:48;10.30;99.90
1179;DHT22;578;48.408;10.004;2022-09-17T00:16:24;10.30;99.90
1179;DHT22;578;48.408;10.004;2022-09-17T00:18:51;10.20;99.90
1179;DHT22;578;48.408;10.004;2022-09-17T00:21:19;10.30;99.90
1179;DHT22;578;48.408;10.004;2022-09-17T00:23:46;10.20;99.90
1179;DHT22;578;48.408;10.004;2022-09-17T00:26:13;10.20;99.90
1179;DHT22;578;48.408;10.004;2022-09-17T00:28:40;10.20;99.90
1179;DHT22;578;48.408;10.004;2022-09-17T00:31:10;10.10;99.90
1179;DHT22;578;48.408;10.004;2022-09-17T00:33:38;10.20;99.90
1179;DHT22;578;48.408;10.004;2022-09-17T00:36:05;10.10;99.90
1179;DHT22;578;48.408;10.004;2022-09-17T00:38:32;10.10;99.90
1179;DHT22;578;48.408;10.004;2022-09-17T00:40:59;10.00;99.90
1179;DHT22;578;48.408;10.004;2022-09-17T00:43:33;10.10;99.90
1179;DHT22;578;48.408;10.004;2022-09-17T00:46:01;10.00;99.90
1179;DHT22;578;48.408;10.004;2022-09-17T00:48:28;10.00;99.90
1179;DHT22;578;48.408;10.004;2022-09-17T00:50:57;10.00;99.90
1179;DHT22;578;48.408;10.004;2022-09-17T00:53:26;10.00;99.90
1179;DHT22;578;48.408;10.004;2022-09-17T00:55:58;9.90;99.90
1179;DHT22;578;48.408;10.004;2022-09-17T00:58:26;9.90;99.90
1179;DHT22;578;48.408;10.004;2022-09-17T01:00:53;9.90;99.90
1179;DHT22;578;48.408;10.004;2022-09-17T01:03:20;9.90;99.90
1179;DHT22;578;48.408;10.004;2022-09-17T01:05:49;9.90;99.90
1179;DHT22;578;48.408;10.004;2022-09-17T01:08:25;9.90;99.90
1179;DHT22;578;48.408;10.004;2022-09-17T01:11:06;9.90;99.90
1179;DHT22;578;48.408;10.004;2022-09-17T01:13:43;9.80;99.90
1179;DHT22;578;48.408;10.004;2022-09-17T01:16:17;9.80;99.90
1179;DHT22;578;48.408;10.004;2022-09-17T01:18:54;9.90;99.90
1179;DHT22;578;48.408;10.004;2022-09-17T01:21:41;9.90;99.90
1179;DHT22;578;48.408;10.004;2022-09-17T01:24:44;10.00;99.90
1179;DHT22;578;48.408;10.004;2022-09-17T01:30:39;9.80;99.90
1179;DHT22;578;48.408;10.004;2022-09-17T01:33:12;9.90;99.90
1179;DHT22;578;48.408;10.004;2022-09-17T01:35:47;9.80;99.90
1179;DHT22;578;48.408;10.004;2022-09-17T01:38:24;9.80;99.90
1179;DHT22;578;48.408;10.004;2022-09-17T01:40:55;9.80;99.90
1179;DHT22;578;48.408;10.004;2022-09-17T01:43:29;9.80;99.90
1179;DHT22;578;48.408;10.004;2022-09-17T01:46:02;9.70;99.90
1179;DHT22;578;48.408;10.004;2022-09-17T01:48:34;9.70;99.90
1179;DHT22;578;48.408;10.004;2022-09-17T01:51:05;9.70;99.90
1179;DHT22;578;48.408;10.004;2022-09-17T01:53:39;9.70;99.90
1179;DHT22;578;48.408;10.004;2022-09-17T01:56:08;9.70;99.90
1179;DHT22;578;48.408;10.004;2022-09-17T01:58:39;9.70;99.90
1179;DHT22;578;48.408;10.004;2022-09-17T02:01:11;9.70;99.90
1179;DHT22;578;48.408;10.004;2022-09-17T02:03:42;9.60;99.90
1179;DHT22;578;48.408;10.004;2022-09-17T02:06:13;9.60;99.90
1179;DHT22;578;48.408;10.004;2022-09-17T02:08:45;9.60;99.90
1179;DHT22;578;48.408;10.004;2022-09-17T02:11:14;9.60;99.90
1179;DHT22;578;48.408;10.004;2022-09-17T02:13:45;9.70;99.90
1179;DHT22;578;48.408;10.004;2022-09-17T02:16:17;9.60;99.90
1179;DHT22;578;48.408;10.004;2022-09-17T02:18:48;9.60;99.90
1179;DHT22;578;48.408;10.004;2022-09-17T02:21:20;9.50;99.90
1179;DHT22;578;48.408;10.004;2022-09-17T02:23:58;9.50;99.90
1179;DHT22;578;48.408;10.004;2022-09-17T02:26:29;9.50;99.90
1179;DHT22;578;48.408;10.004;2022-09-17T02:29:00;9.50;99.90
1179;DHT22;578;48.408;10.004;2022-09-17T02:31:32;9.60;99.90
1179;DHT22;578;48.408;10.004;2022-09-17T02:34:00;9.50;99.90
1179;DHT22;578;48.408;10.004;2022-09-17T02:36:29;9.50;99.90
1179;DHT22;578;48.408;10.004;2022-09-17T02:38:59;9.50;99.90
1179;DHT22;578;48.408;10.004;2022-09-17T02:41:35;9.50;99.90
1179;DHT22;578;48.408;10.004;2022-09-17T02:44:11;9.50;99.90
1179;DHT22;578;48.408;10.004;2022-09-17T02:46:59;9.40;99.90
1179;DHT22;578;48.408;10.004;2022-09-17T02:49:46;9.30;99.90
1179;DHT22;578;48.408;10.004;2022-09-17T02:52:20;9.20;99.90
1179;DHT22;578;48.408;10.004;2022-09-17T02:54:58;9.20;99.90
1179;DHT22;578;48.408;10.004;2022-09-17T02:57:32;9.20;99.90
1179;DHT22;578;48.408;10.004;2022-09-17T03:00:03;9.20;99.90
1179;DHT22;578;48.408;10.004;2022-09-17T03:02:37;9.20;99.90
1179;DHT22;578;48.408;10.004;2022-09-17T03:05:08;9.20;99.90
1179;DHT22;578;48.408;10.004;2022-09-17T03:07:36;9.20;99.90
1179;DHT22;578;48.408;10.004;2022-09-17T03:10:03;9.10;99.90
1179;DHT22;578;48.408;10.004;2022-09-17T03:12:30;9.00;99.90
1179;DHT22;578;48.408;10.004;2022-09-17T03:14:57;9.10;99.90
1179;DHT22;578;48.408;10.004;2022-09-17T03:17:23;9.10;99.90
1179;DHT22;578;48.408;10.004;2022-09-17T03:19:52;9.10;99.90
1179;DHT22;578;48.408;10.004;2022-09-17T03:22:18;9.20;99.90
1179;DHT22;578;48.408;10.004;2022-09-17T03:24:45;9.20;99.90
1179;DHT22;578;48.408;10.004;2022-09-17T03:27:12;9.30;99.90
1179;DHT22;578;48.408;10.004;2022-09-17T03:29:38;9.30;99.90
1179;DHT22;578;48.408;10.004;2022-09-17T03:32:05;9.10;99.90
1179;DHT22;578;48.408;10.004;2022-09-17T03:34:33;9.20;99.90
1179;DHT22;578;48.408;10.004;2022-09-17T03:37:01;9.30;99.90
1179;DHT22;578;48.408;10.004;2022-09-17T03:39:27;9.30;99.90
1179;DHT22;578;48.408;10.004;2022-09-17T03:41:54;9.40;99.90
1179;DHT22;578;48.408;10.004;2022-09-17T03:44:21;9.30;99.90
1179;DHT22;578;48.408;10.004;2022-09-17T03:46:48;9.30;99.90
1179;DHT22;578;48.408;10.004;2022-09-17T03:49:15;9.30;99.90
1179;DHT22;578;48.408;10.004;2022-09-17T03:51:41;9.40;99.90
1179;DHT22;578;48.408;10.004;2022-09-17T03:54:09;9.30;99.90
1179;DHT22;578;48.408;10.004;2022-09-17T03:56:36;9.20;99.90
1179;DHT22;578;48.408;10.004;2022-09-17T03:59:03;9.20;99.90
1179;DHT22;578;48.408;10.004;2022-09-17T04:01:30;9.10;99.90
1179;DHT22;578;48.408;10.004;2022-09-17T04:03:57;8.90;99.90
1179;DHT22;578;48.408;10.004;2022-09-17T04:06:23;8.80;99.90
1179;DHT22;578;48.408;10.004;2022-09-17T04:08:50;8.70;99.90
1179;DHT22;578;48.408;10.004;2022-09-17T04:11:19;8.70;99.90
1179;DHT22;578;48.408;10.004;2022-09-17T04:13:45;8.80;99.90
1179;DHT22;578;48.408;10.004;2022-09-17T04:16:12;8.70;99.90
1179;DHT22;578;48.408;10.004;2022-09-17T04:18:39;8.70;99.90
1179;DHT22;578;48.408;10.004;2022-09-17T04:21:06;8.80;99.90
1179;DHT22;578;48.408;10.004;2022-09-17T04:23:33;8.80;99.90
1179;DHT22;578;48.408;10.004;2022-09-17T04:25:59;8.80;99.90
1179;DHT22;578;48.408;10.004;2022-09-17T04:28:27;8.80;99.90
1179;DHT22;578;48.408;10.004;2022-09-17T04:30:54;8.60;99.90
1179;DHT22;578;48.408;10.004;2022-09-17T04:33:22;8.60;99.90
1179;DHT22;578;48.408;10.004;2022-09-17T04:35:49;8.50;99.90
1179;DHT22;578;48.408;10.004;2022-09-17T04:38:15;8.70;99.90
1179;DHT22;578;48.408;10.004;2022-09-17T04:40:45;8.80;99.90
1179;DHT22;578;48.408;10.004;2022-09-17T04:43:12;8.90;99.90
1179;DHT22;578;48.408;10.004;2022-09-17T04:45:40;8.90;99.90
1179;DHT22;578;48.408;10.004;2022-09-17T04:48:07;8.90;99.90
1179;DHT22;578;48.408;10.004;2022-09-17T04:50:33;8.80;99.90
1179;DHT22;578;48.408;10.004;2022-09-17T04:53:00;8.80;99.90
1179;DHT22;578;48.408;10.004;2022-09-17T04:55:27;8.80;99.90
1179;DHT22;578;48.408;10.004;2022-09-17T04:57:55;8.80;99.90
1179;DHT22;578;48.408;10.004;2022-09-17T05:00:23;8.70;99.90
1179;DHT22;578;48.408;10.004;2022-09-17T05:02:52;8.60;99.90
1179;DHT22;578;48.408;10.004;2022-09-17T05:05:20;8.50;99.90
1179;DHT22;578;48.408;10.004;2022-09-17T05:07:47;8.50;99.90
1179;DHT22;578;48.408;10.004;2022-09-17T05:10:16;8.40;99.90
1179;DHT22;578;48.408;10.004;2022-09-17T05:12:47;8.40;99.90
1179;DHT22;578;48.408;10.004;2022-09-17T05:15:14;8.50;99.90
1179;DHT22;578;48.408;10.004;2022-09-17T05:17:40;8.30;99.90
1179;DHT22;578;48.408;10.004;2022-09-17T05:20:09;8.40;99.90
1179;DHT22;578;48.408;10.004;2022-09-17T05:22:40;8.50;99.90
1179;DHT22;578;48.408;10.004;2022-09-17T05:25:07;8.50;99.90
1179;DHT22;578;48.408;10.004;2022-09-17T05:27:34;8.50;99.90
1179;DHT22;578;48.408;10.004;2022-09-17T05:30:01;8.50;99.90
1179;DHT22;578;48.408;10.004;2022-09-17T05:32:28;8.50;99.90
1179;DHT22;578;48.408;10.004;2022-09-17T05:34:55;8.60;99.90
1179;DHT22;578;48.408;10.004;2022-09-17T05:37:23;8.60;99.90
1179;DHT22;578;48.408;10.004;2022-09-17T05:39:50;8.70;99.90
1179;DHT22;578;48.408;10.004;2022-09-17T05:42:17;8.80;99.90
1179;DHT22;578;48.408;10.004;2022-09-17T05:44:43;8.80;99.90
1179;DHT22;578;48.408;10.004;2022-09-17T05:47:10;8.90;99.90
1179;DHT22;578;48.408;10.004;2022-09-17T05:49:37;8.90;99.90
1179;DHT22;578;48.408;10.004;2022-09-17T05:52:04;9.00;99.90
1179;DHT22;578;48.408;10.004;2022-09-17T05:54:32;9.00;99.90
1179;DHT22;578;48.408;10.004;2022-09-17T05:56:58;9.00;99.90
1179;DHT22;578;48.408;10.004;2022-09-17T05:59:26;9.00;99.90
1179;DHT22;578;48.408;10.004;2022-09-17T06:01:53;9.10;99.90
1179;DHT22;578;48.408;10.004;2022-09-17T06:04:20;9.10;99.90
1179;DHT22;578;48.408;10.004;2022-09-17T06:06:46;9.10;99.90
1179;DHT22;578;48.408;10.004;2022-09-17T06:09:13;9.20;99.90
1179;DHT22;578;48.408;10.004;2022-09-17T06:11:41;9.30;99.90
1179;DHT22;578;48.408;10.004;2022-09-17T06:14:08;9.40;99.90
1179;DHT22;578;48.408;10.004;2022-09-17T06:16:35;9.30;99.90
1179;DHT22;578;48.408;10.004;2022-09-17T06:19:01;9.40;99.90
1179;DHT22;578;48.408;10.004;2022-09-17T06:21:28;9.70;99.90
1179;DHT22;578;48.408;10.004;2022-09-17T06:23:55;10.70;99.90
1179;DHT22;578;48.408;10.004;2022-09-17T06:26:22;10.90;99.90
1179;DHT22;578;48.408;10.004;2022-09-17T06:28:50;10.90;99.90
1179;DHT22;578;48.408;10.004;2022-09-17T06:31:16;10.70;99.90
1179;DHT22;578;48.408;10.004;2022-09-17T06:33:43;11.00;99.90
1179;DHT22;578;48.408;10.004;2022-09-17T06:36:10;11.10;99.90
1179;DHT22;578;48.408;10.004;2022-09-17T06:38:37;11.00;99.90
1179;DHT22;578;48.408;10.004;2022-09-17T06:41:04;10.80;99.90
1179;DHT22;578;48.408;10.004;2022-09-17T06:43:31;11.10;99.90
1179;DHT22;578;48.408;10.004;2022-09-17T06:46:01;11.10;99.90
1179;DHT22;578;48.408;10.004;2022-09-17T06:48:29;11.00;99.90
1179;DHT22;578;48.408;10.004;2022-09-17T06:51:00;11.10;99.90
1179;DHT22;578;48.408;10.004;2022-09-17T06:53:29;11.30;99.90
1179;DHT22;578;48.408;10.004;2022-09-17T06:55:56;11.10;99.90
1179;DHT22;578;48.408;10.004;2022-09-17T06:58:23;10.90;99.90
1179;DHT22;578;48.408;10.004;2022-09-17T07:00:51;11.00;99.90
1179;DHT22;578;48.408;10.004;2022-09-17T07:03:19;10.90;99.90
1179;DHT22;578;48.408;10.004;2022-09-17T07:05:46;10.90;99.90
1179;DHT22;578;48.408;10.004;2022-09-17T07:08:12;11.20;99.90
1179;DHT22;578;48.408;10.004;2022-09-17T07:10:39;11.20;99.90
1179;DHT22;578;48.408;10.004;2022-09-17T07:13:06;11.00;99.90
1179;DHT22;578;48.408;10.004;2022-09-17T07:15:33;10.60;99.90
1179;DHT22;578;48.408;10.004;2022-09-17T07:18:01;10.50;99.90
1179;DHT22;578;48.408;10.004;2022-09-17T07:20:34;10.40;99.90
1179;DHT22;578;48.408;10.004;2022-09-17T07:23:00;10.30;99.90
1179;DHT22;578;48.408;10.004;2022-09-17T07:25:27;10.40;99.90
1179;DHT22;578;48.408;10.004;2022-09-17T07:27:54;10.40;99.90
1179;DHT22;578;48.408;10.004;2022-09-17T07:30:21;10.40;99.90
1179;DHT22;578;48.408;10.004;2022-09-17T07:32:47;10.30;99.90
1179;DHT22;578;48.408;10.004;2022-09-17T07:35:14;10.30;99.90
1179;DHT22;578;48.408;10.004;2022-09-17T07:37:43;10.40;99.90
1179;DHT22;578;48.408;10.004;2022-09-17T07:40:09;10.40;99.90
1179;DHT22;578;48.408;10.004;2022-09-17T07:42:36;10.40;99.90
1179;DHT22;578;48.408;10.004;2022-09-17T07:45:03;10.40;99.90
1179;DHT22;578;48.408;10.004;2022-09-17T07:47:31;10.50;99.90
1179;DHT22;578;48.408;10.004;2022-09-17T07:49:57;10.40;99.90
1179;DHT22;578;48.408;10.004;2022-09-17T07:52:24;10.50;99.90
1179;DHT22;578;48.408;10.004;2022-09-17T07:54:53;10.50;99.90
1179;DHT22;578;48.408;10.004;2022-09-17T07:57:19;10.60;99.90
1179;DHT22;578;48.408;10.004;2022-09-17T07:59:46;10.50;99.90
1179;DHT22;578;48.408;10.004;2022-09-17T08:02:13;10.50;99.90
1179;DHT22;578;48.408;10.004;2022-09-17T08:04:40;10.50;99.90
1179;DHT22;578;48.408;10.004;2022-09-17T08:07:10;10.50;99.90
1179;DHT22;578;48.408;10.004;2022-09-17T08:09:37;10.50;99.90
1179;DHT22;578;48.408;10.004;2022-09-17T08:12:06;10.60;99.90
1179;DHT22;578;48.408;10.004;2022-09-17T08:14:32;10.60;99.90
1179;DHT22;578;48.408;10.004;2022-09-17T08:16:59;10.70;99.90
1179;DHT22;578;48.408;10.004;2022-09-17T08:19:26;10.70;99.90
1179;DHT22;578;48.408;10.004;2022-09-17T08:21:55;10.70;99.90
1179;DHT22;578;48.408;10.004;2022-09-17T08:24:22;10.70;99.90
1179;DHT22;578;48.408;10.004;2022-09-17T08:26:49;10.80;99.90
1179;DHT22;578;48.408;10.004;2022-09-17T08:29:17;11.10;99.90
1179;DHT22;578;48.408;10.004;2022-09-17T08:31:44;11.50;99.90
1179;DHT22;578;48.408;10.004;2022-09-17T08:34:11;11.80;99.90
1179;DHT22;578;48.408;10.004;2022-09-17T08:36:38;11.70;99.90
1179;DHT22;578;48.408;10.004;2022-09-17T08:39:05;11.80;99.90
1179;DHT22;578;48.408;10.004;2022-09-17T08:41:43;12.00;99.90
1179;DHT22;578;48.408;10.004;2022-09-17T08:44:25;12.00;99.90
1179;DHT22;578;48.408;10.004;2022-09-17T08:46:58;12.10;99.90
1179;DHT22;578;48.408;10.004;2022-09-17T08:49:31;12.00;99.90
1179;DHT22;578;48.408;10.004;2022-09-17T08:52:18;11.70;99.90
1179;DHT22;578;48.408;10.004;2022-09-17T08:54:53;11.40;99.90
1179;DHT22;578;48.408;10.004;2022-09-17T08:57:28;11.10;99.90
1179;DHT22;578;48.408;10.004;2022-09-17T09:00:02;10.80;99.90
1179;DHT22;578;48.408;10.004;2022-09-17T09:02:42;11.00;99.90
1179;DHT22;578;48.408;10.004;2022-09-17T09:05:15;11.00;99.90
1179;DHT22;578;48.408;10.004;2022-09-17T09:07:46;11.00;99.90
1179;DHT22;578;48.408;10.004;2022-09-17T09:10:17;11.40;99.90
1179;DHT22;578;48.408;10.004;2022-09-17T09:12:46;11.30;99.90
1179;DHT22;578;48.408;10.004;2022-09-17T09:15:26;11.20;99.90
1179;DHT22;578;48.408;10.004;2022-09-17T09:17:57;11.00;99.90
1179;DHT22;578;48.408;10.004;2022-09-17T09:20:30;10.90;99.90
1179;DHT22;578;48.408;10.004;2022-09-17T09:23:04;10.60;99.90
1179;DHT22;578;48.408;10.004;2022-09-17T09:25:49;10.80;99.90
1179;DHT22;578;48.408;10.004;2022-09-17T09:28:34;10.80;99.90
1179;DHT22;578;48.408;10.004;2022-09-17T09:31:15;10.60;99.90
1179;DHT22;578;48.408;10.004;2022-09-17T09:33:48;10.70;99.90
1179;DHT22;578;48.408;10.004;2022-09-17T09:36:17;10.70;99.90
1179;DHT22;578;48.408;10.004;2022-09-17T09:38:51;10.70;99.90
1179;DHT22;578;48.408;10.004;2022-09-17T09:41:25;10.80;99.90
1179;DHT22;578;48.408;10.004;2022-09-17T09:44:00;10.60;99.90
1179;DHT22;578;48.408;10.004;2022-09-17T09:46:50;10.70;99.90
1179;DHT22;578;48.408;10.004;2022-09-17T09:49:30;10.80;99.90
1179;DHT22;578;48.408;10.004;2022-09-17T09:52:07;10.80;99.90
1179;DHT22;578;48.408;10.004;2022-09-17T09:54:45;10.80;99.90
1179;DHT22;578;48.408;10.004;2022-09-17T09:57:17;10.70;99.90
1179;DHT22;578;48.408;10.004;2022-09-17T09:59:46;10.80;99.90
1179;DHT22;578;48.408;10.004;2022-09-17T10:02:14;10.50;99.90
1179;DHT22;578;48.408;10.004;2022-09-17T10:04:41;10.60;99.90
1179;DHT22;578;48.408;10.004;2022-09-17T10:07:09;10.60;99.90
1179;DHT22;578;48.408;10.004;2022-09-17T10:09:37;10.50;99.90
1179;DHT22;578;48.408;10.004;2022-09-17T10:12:15;10.50;99.90
1179;DHT22;578;48.408;10.004;2022-09-17T10:14:44;11.00;99.90
1179;DHT22;578;48.408;10.004;2022-09-17T10:17:21;11.90;99.90
1179;DHT22;578;48.408;10.004;2022-09-17T10:20:13;12.90;99.90
1179;DHT22;578;48.408;10.004;2022-09-17T10:22:43;13.30;99.90
1179;DHT22;578;48.408;10.004;2022-09-17T10:25:26;13.70;99.90
1179;DHT22;578;48.408;10.004;2022-09-17T10:27:54;12.70;99.90
1179;DHT22;578;48.408;10.004;2022-09-17T10:30:21;12.60;99.90
1179;DHT22;578;48.408;10.004;2022-09-17T10:33:18;12.90;99.90
1179;DHT22;578;48.408;10.004;2022-09-17T10:35:58;13.00;99.90
1179;DHT22;578;48.408;10.004;2022-09-17T10:38:27;12.90;99.90
1179;DHT22;578;48.408;10.004;2022-09-17T10:41:09;12.90;99.90
1179;DHT22;578;48.408;10.004;2022-09-17T10:43:36;13.00;99.90
1179;DHT22;578;48.408;10.004;2022-09-17T10:46:03;12.40;99.90
1179;DHT22;578;48.408;10.004;2022-09-17T10:48:36;12.20;99.90
1179;DHT22;578;48.408;10.004;2022-09-17T10:51:04;12.10;99.90
1179;DHT22;578;48.408;10.004;2022-09-17T10:54:05;12.00;99.90
1179;DHT22;578;48.408;10.004;2022-09-17T10:56:34;12.00;99.90
1179;DHT22;578;48.408;10.004;2022-09-17T10:59:24;12.10;99.90
1179;DHT22;578;48.408;10.004;2022-09-17T11:01:59;11.80;99.90
1179;DHT22;578;48.408;10.004;2022-09-17T11:04:41;11.60;99.90
1179;DHT22;578;48.408;10.004;2022-09-17T11:07:31;11.50;99.90
1179;DHT22;578;48.408;10.004;2022-09-17T11:10:03;11.30;99.90
1179;DHT22;578;48.408;10.004;2022-09-17T11:12:40;11.50;99.90
1179;DHT22;578;48.408;10.004;2022-09-17T11:15:22;11.90;99.90
1179;DHT22;578;48.408;10.004;2022-09-17T11:18:14;12.10;99.90
1179;DHT22;578;48.408;10.004;2022-09-17T11:20:57;12.20;99.90
1179;DHT22;578;48.408;10.004;2022-09-17T11:23:55;11.70;99.90
1179;DHT22;578;48.408;10.004;2022-09-17T11:26:31;11.40;99.90
1179;DHT22;578;48.408;10.004;2022-09-17T11:29:11;11.30;99.90
1179;DHT22;578;48.408;10.004;2022-09-17T11:31:49;11.10;99.90
1179;DHT22;578;48.408;10.004;2022-09-17T11:34:25;11.00;99.90
1179;DHT22;578;48.408;10.004;2022-09-17T11:36:59;10.60;99.90
1179;DHT22;578;48.408;10.004;2022-09-17T11:39:32;10.30;99.90
1179;DHT22;578;48.408;10.004;2022-09-17T11:42:02;10.40;99.90
1179;DHT22;578;48.408;10.004;2022-09-17T11:44:35;10.70;99.90
1179;DHT22;578;48.408;10.004;2022-09-17T11:47:08;10.70;99.90
1179;DHT22;578;48.408;10.004;2022-09-17T11:49:40;10.50;99.90
1179;DHT22;578;48.408;10.004;2022-09-17T11:52:13;10.50;99.90
1179;DHT22;578;48.408;10.004;2022-09-17T11:54:48;10.50;99.90
1179;DHT22;578;48.408;10.004;2022-09-17T11:57:17;10.70;99.90
1179;DHT22;578;48.408;10.004;2022-09-17T11:59:49;10.60;99.90
1179;DHT22;578;48.408;10.004;2022-09-17T12:02:22;10.90;99.90
1179;DHT22;578;48.408;10.004;2022-09-17T12:04:55;11.20;99.90
1179;DHT22;578;48.408;10.004;2022-09-17T12:07:33;11.20;99.90
1179;DHT22;578;48.408;10.004;2022-09-17T12:10:17;11.40;99.90
1179;DHT22;578;48.408;10.004;2022-09-17T12:12:51;11.60;99.90
1179;DHT22;578;48.408;10.004;2022-09-17T12:15:22;11.80;99.90
1179;DHT22;578;48.408;10.004;2022-09-17T12:17:54;11.80;99.90
1179;DHT22;578;48.408;10.004;2022-09-17T12:20:26;11.80;99.90
1179;DHT22;578;48.408;10.004;2022-09-17T12:22:57;11.80;99.90
1179;DHT22;578;48.408;10.004;2022-09-17T12:25:30;12.10;99.90
1179;DHT22;578;48.408;10.004;2022-09-17T12:28:01;12.00;99.90
1179;DHT22;578;48.408;10.004;2022-09-17T12:30:33;11.70;99.90
1179;DHT22;578;48.408;10.004;2022-09-17T12:33:20;11.70;99.90
1179;DHT22;578;48.408;10.004;2022-09-17T12:39:29;12.30;99.90
1179;DHT22;578;48.408;10.004;2022-09-17T12:42:05;12.40;99.90
1179;DHT22;578;48.408;10.004;2022-09-17T12:45:06;12.30;99.90
1179;DHT22;578;48.408;10.004;2022-09-17T12:48:05;12.80;99.90
1179;DHT22;578;48.408;10.004;2022-09-17T12:50:46;12.90;99.90
1179;DHT22;578;48.408;10.004;2022-09-17T12:53:22;13.00;99.90
1179;DHT22;578;48.408;10.004;2022-09-17T12:56:01;13.10;99.90
1179;DHT22;578;48.408;10.004;2022-09-17T12:58:41;12.90;99.90
1179;DHT22;578;48.408;10.004;2022-09-17T13:01:18;12.80;99.90
1179;DHT22;578;48.408;10.004;2022-09-17T13:03:53;12.90;99.90
1179;DHT22;578;48.408;10.004;2022-09-17T13:06:48;12.70;99.90
1179;DHT22;578;48.408;10.004;2022-09-17T13:09:38;12.70;98.70
1179;DHT22;578;48.408;10.004;2022-09-17T13:12:15;12.90;99.90
1179;DHT22;578;48.408;10.004;2022-09-17T13:15:22;13.00;99.90
1179;DHT22;578;48.408;10.004;2022-09-17T13:17:57;12.90;99.90
1179;DHT22;578;48.408;10.004;2022-09-17T13:20:31;12.70;98.60
1179;DHT22;578;48.408;10.004;2022-09-17T13:23:00;12.80;99.90
1179;DHT22;578;48.408;10.004;2022-09-17T13:25:26;12.20;99.90
1179;DHT22;578;48.408;10.004;2022-09-17T13:28:07;11.70;99.90
1179;DHT22;578;48.408;10.004;2022-09-17T13:30:54;12.00;99.90
1179;DHT22;578;48.408;10.004;2022-09-17T13:33:52;12.00;99.90
1179;DHT22;578;48.408;10.004;2022-09-17T13:36:40;11.70;99.90
1179;DHT22;578;48.408;10.004;2022-09-17T13:39:09;11.30;99.90
1179;DHT22;578;48.408;10.004;2022-09-17T13:41:38;11.10;99.90
1179;DHT22;578;48.408;10.004;2022-09-17T13:44:08;11.00;99.90
1179;DHT22;578;48.408;10.004;2022-09-17T13:46:37;11.00;99.90
1179;DHT22;578;48.408;10.004;2022-09-17T13:49:10;11.20;99.90
1179;DHT22;578;48.408;10.004;2022-09-17T13:51:56;11.30;99.90
1179;DHT22;578;48.408;10.004;2022-09-17T13:54:35;11.30;99.90
1179;DHT22;578;48.408;10.004;2022-09-17T13:57:09;11.20;99.90
1179;DHT22;578;48.408;10.004;2022-09-17T13:59:54;11.10;99.90
1179;DHT22;578;48.408;10.004;2022-09-17T14:02:34;10.80;99.90
1179;DHT22;578;48.408;10.004;2022-09-17T14:05:33;10.60;99.90
1179;DHT22;578;48.408;10.004;2022-09-17T14:08:22;10.60;99.90
1179;DHT22;578;48.408;10.004;2022-09-17T14:10:52;10.80;99.90
1179;DHT22;578;48.408;10.004;2022-09-17T14:13:43;10.90;99.90
1179;DHT22;578;48.408;10.004;2022-09-17T14:16:34;11.10;99.90
1179;DHT22;578;48.408;10.004;2022-09-17T14:19:27;11.10;99.90
1179;DHT22;578;48.408;10.004;2022-09-17T14:22:01;11.20;99.90
1179;DHT22;578;48.408;10.004;2022-09-17T14:24:35;11.30;99.90
1179;DHT22;578;48.408;10.004;2022-09-17T14:27:14;11.30;99.90
1179;DHT22;578;48.408;10.004;2022-09-17T14:29:56;11.30;99.90
1179;DHT22;578;48.408;10.004;2022-09-17T14:32:30;11.20;99.90
1179;DHT22;578;48.408;10.004;2022-09-17T14:35:00;11.00;99.90
1179;DHT22;578;48.408;10.004;2022-09-17T14:37:28;10.90;99.90
1179;DHT22;578;48.408;10.004;2022-09-17T14:39:55;10.60;99.90
1179;DHT22;578;48.408;10.004;2022-09-17T14:42:24;10.70;99.90
1179;DHT22;578;48.408;10.004;2022-09-17T14:44:57;10.50;99.90
1179;DHT22;578;48.408;10.004;2022-09-17T14:47:25;10.60;99.90
1179;DHT22;578;48.408;10.004;2022-09-17T14:49:53;10.50;99.90
1179;DHT22;578;48.408;10.004;2022-09-17T14:52:26;10.40;99.90
1179;DHT22;578;48.408;10.004;2022-09-17T14:55:14;10.40;99.90
1179;DHT22;578;48.408;10.004;2022-09-17T14:57:42;10.30;99.90
1179;DHT22;578;48.408;10.004;2022-09-17T15:00:16;10.60;99.90
1179;DHT22;578;48.408;10.004;2022-09-17T15:02:43;10.60;99.90
1179;DHT22;578;48.408;10.004;2022-09-17T15:05:21;10.50;99.90
1179;DHT22;578;48.408;10.004;2022-09-17T15:07:48;10.60;99.90
1179;DHT22;578;48.408;10.004;2022-09-17T15:10:17;11.00;99.90
1179;DHT22;578;48.408;10.004;2022-09-17T15:12:45;11.10;99.90
1179;DHT22;578;48.408;10.004;2022-09-17T15:15:17;11.30;99.90
1179;DHT22;578;48.408;10.004;2022-09-17T15:17:45;11.10;99.90
1179;DHT22;578;48.408;10.004;2022-09-17T15:20:16;10.90;99.90
1179;DHT22;578;48.408;10.004;2022-09-17T15:22:48;11.10;99.90
1179;DHT22;578;48.408;10.004;2022-09-17T15:25:19;11.40;99.90
1179;DHT22;578;48.408;10.004;2022-09-17T15:27:49;11.40;99.90
1179;DHT22;578;48.408;10.004;2022-09-17T15:30:19;11.40;99.90
1179;DHT22;578;48.408;10.004;2022-09-17T15:32:48;11.40;99.90
1179;DHT22;578;48.408;10.004;2022-09-17T15:35:23;11.20;99.90
1179;DHT22;578;48.408;10.004;2022-09-17T15:37:55;11.30;99.90
1179;DHT22;578;48.408;10.004;2022-09-17T15:40:26;11.00;99.90
1179;DHT22;578;48.408;10.004;2022-09-17T15:43:03;10.90;99.90
1179;DHT22;578;48.408;10.004;2022-09-17T15:45:32;11.00;99.90
1179;DHT22;578;48.408;10.004;2022-09-17T15:48:04;11.10;99.90
1179;DHT22;578;48.408;10.004;2022-09-17T15:50:32;11.20;99.90
1179;DHT22;578;48.408;10.004;2022-09-17T15:53:22;11.20;99.90
1179;DHT22;578;48.408;10.004;2022-09-17T15:56:00;11.20;99.90
1179;DHT22;578;48.408;10.004;2022-09-17T15:58:29;11.10;99.90
1179;DHT22;578;48.408;10.004;2022-09-17T16:04:18;10.90;99.90
1179;DHT22;578;48.408;10.004;2022-09-17T16:06:55;10.90;99.90
1179;DHT22;578;48.408;10.004;2022-09-17T16:09:39;10.80;99.90
1179;DHT22;578;48.408;10.004;2022-09-17T16:12:06;10.60;99.90
1179;DHT22;578;48.408;10.004;2022-09-17T16:14:33;10.60;99.90
1179;DHT22;578;48.408;10.004;2022-09-17T16:17:19;10.50;99.90
1179;DHT22;578;48.408;10.004;2022-09-17T16:19:47;10.40;99.90
1179;DHT22;578;48.408;10.004;2022-09-17T16:22:13;10.40;99.90
1179;DHT22;578;48.408;10.004;2022-09-17T16:24:41;10.30;99.90
1179;DHT22;578;48.408;10.004;2022-09-17T16:27:10;10.20;99.90
1179;DHT22;578;48.408;10.004;2022-09-17T16:29:38;10.10;99.90
1179;DHT22;578;48.408;10.004;2022-09-17T16:32:06;10.20;99.90
1179;DHT22;578;48.408;10.004;2022-09-17T16:34:35;10.20;99.90
1179;DHT22;578;48.408;10.004;2022-09-17T16:37:07;10.20;99.90
1179;DHT22;578;48.408;10.004;2022-09-17T16:39:46;10.20;99.90
1179;DHT22;578;48.408;10.004;2022-09-17T16:42:14;10.30;99.90
1179;DHT22;578;48.408;10.004;2022-09-17T16:44:45;10.40;99.90
1179;DHT22;578;48.408;10.004;2022-09-17T16:47:14;10.40;99.90
1179;DHT22;578;48.408;10.004;2022-09-17T16:49:43;10.40;99.90